Time;durP1;ratioP1;P1;durP2;ratioP2;P2;SDS_P1;SDS_P2;PMS_P1;PMS_P2;Temp;Humidity;BMP_temperature;BMP_pressure;BME280_temperature;BME280_humidity;BME280_pressure;Samples;Min_cycle;Max_cycle;Signal;HPM_P1;HPM_P2
2022/09/10 00:00:39;;;;;;;4.70;2.28;;;12.50;99.90;;;;;;4881347;29;20666;-86
2022/09/10 00:03:05;;;;;;;1.90;1.52;;;12.50;99.90;;;;;;4879750;29;20643;-87
2022/09/10 00:05:45;;;;;;;2.83;2.30;;;12.70;99.90;;;;;;4880794;29;20206;-86
2022/09/10 00:08:11;;;;;;;3.92;1.70;;;12.50;99.90;;;;;;4880914;29;20202;-86
2022/09/10 00:10:45;;;;;;;2.47;1.73;;;12.50;99.90;;;;;;4880872;29;20187;-87
2022/09/10 00:13:12;;;;;;;3.25;1.98;;;12.50;99.90;;;;;;4878608;29;20217;-87
2022/09/10 00:15:44;;;;;;;3.78;2.25;;;12.50;99.90;;;;;;4879954;29;20522;-87
2022/09/10 00:18:10;;;;;;;8.73;2.42;;;12.50;99.90;;;;;;4864705;29;20193;-88
2022/09/10 00:20:52;;;;;;;2.15;1.90;;;12.50;99.90;;;;;;4864380;29;20182;-87
2022/09/10 00:23:20;;;;;;;2.35;1.88;;;12.50;99.90;;;;;;4880941;29;20193;-87
2022/09/10 00:25:45;;;;;;;3.70;2.55;;;12.50;99.90;;;;;;4880761;29;20178;-88
2022/09/10 00:28:11;;;;;;;1.45;1.30;;;12.50;99.90;;;;;;4879532;29;20182;-87
2022/09/10 00:30:41;;;;;;;2.90;2.58;;;12.50;99.90;;;;;;4864071;29;20304;-87
2022/09/10 00:33:07;;;;;;;3.35;2.45;;;12.50;99.90;;;;;;4880307;29;20381;-86
2022/09/10 00:35:34;;;;;;;2.13;1.92;;;12.40;99.90;;;;;;4879602;29;20695;-86
2022/09/10 00:38:00;;;;;;;2.42;1.98;;;12.50;99.90;;;;;;4881924;29;20277;-86
2022/09/10 00:40:26;;;;;;;2.65;1.77;;;12.50;99.90;;;;;;4881880;29;20265;-85
2022/09/10 00:42:52;;;;;;;2.30;2.13;;;12.50;99.90;;;;;;4880428;29;20619;-85
2022/09/10 00:45:21;;;;;;;2.78;2.28;;;12.40;99.90;;;;;;4863470;29;20182;-86
2022/09/10 00:47:50;;;;;;;3.95;2.22;;;12.40;99.90;;;;;;4879300;29;20196;-86
2022/09/10 00:50:21;;;;;;;2.10;1.88;;;12.40;99.90;;;;;;4880861;29;20173;-90
2022/09/10 00:52:47;;;;;;;5.47;1.90;;;12.40;99.90;;;;;;4882358;29;20209;-87
2022/09/10 00:55:14;;;;;;;3.17;2.58;;;12.40;99.90;;;;;;4877898;29;20293;-87
2022/09/10 00:57:41;;;;;;;2.45;1.90;;;12.90;99.90;;;;;;4879464;29;20293;-88
2022/09/10 01:00:11;;;;;;;2.90;1.90;;;12.30;99.90;;;;;;4878028;29;20802;-89
2022/09/10 01:02:36;;;;;;;4.57;2.78;;;12.30;99.90;;;;;;4879115;29;20197;-88
2022/09/10 01:05:04;;;;;;;3.53;2.05;;;12.20;99.90;;;;;;4876415;29;20182;-84
2022/09/10 01:07:32;;;;;;;4.85;2.85;;;12.20;99.90;;;;;;4878120;29;20182;-87
2022/09/10 01:10:02;;;;;;;3.85;3.05;;;12.20;99.90;;;;;;4879042;29;20190;-87
2022/09/10 01:12:27;;;;;;;3.63;3.03;;;12.20;99.90;;;;;;4861355;29;20214;-87
2022/09/10 01:15:05;;;;;;;3.10;2.55;;;12.20;99.90;;;;;;4877010;29;20185;-86
2022/09/10 01:17:45;;;;;;;4.43;2.95;;;12.20;99.90;;;;;;4873943;29;20184;-87
2022/09/10 01:20:33;;;;;;;3.05;2.65;;;12.20;99.90;;;;;;4874068;29;20204;-86
2022/09/10 01:23:28;;;;;;;4.50;3.10;;;12.20;99.90;;;;;;4877210;29;20273;-86
2022/09/10 01:26:02;;;;;;;2.75;2.38;;;12.10;99.90;;;;;;4874905;29;20190;-86
2022/09/10 01:29:00;;;;;;;4.18;2.28;;;12.20;99.90;;;;;;4875698;29;20181;-86
2022/09/10 01:31:38;;;;;;;4.78;2.92;;;12.10;99.90;;;;;;4877997;29;20221;-87
2022/09/10 01:34:34;;;;;;;4.60;2.70;;;12.00;99.90;;;;;;4878172;29;20248;-87
2022/09/10 01:37:05;;;;;;;6.63;3.03;;;12.10;99.90;;;;;;4852034;29;20194;-88
2022/09/10 01:39:32;;;;;;;2.05;1.95;;;12.10;99.90;;;;;;4876364;29;20178;-87
2022/09/10 01:41:59;;;;;;;3.05;2.22;;;12.10;99.90;;;;;;4882158;29;20185;-87
2022/09/10 01:44:44;;;;;;;4.25;2.88;;;12.00;99.90;;;;;;4865272;29;20213;-87
2022/09/10 01:47:38;;;;;;;4.57;2.65;;;12.10;99.90;;;;;;4885529;29;20181;-87
2022/09/10 01:50:27;;;;;;;3.72;2.35;;;12.10;99.90;;;;;;4879985;29;20192;-87
2022/09/10 01:53:32;;;;;;;2.70;2.38;;;12.10;99.90;;;;;;4880336;29;20201;-86
2022/09/10 01:56:02;;;;;;;2.95;2.60;;;12.10;99.90;;;;;;4871067;29;20201;-86
2022/09/10 01:58:34;;;;;;;2.50;1.70;;;12.10;99.90;;;;;;4884642;29;20340;-87
2022/09/10 02:01:12;;;;;;;2.88;2.00;;;12.10;99.90;;;;;;4887248;29;20236;-86
2022/09/10 02:03:41;;;;;;;2.95;2.65;;;12.10;99.90;;;;;;4883276;29;20237;-86
2022/09/10 02:06:10;;;;;;;6.13;3.22;;;12.00;99.90;;;;;;4898589;29;20197;-86
2022/09/10 02:08:38;;;;;;;2.92;2.63;;;12.00;99.90;;;;;;4899588;29;20173;-85
2022/09/10 02:11:08;;;;;;;3.17;2.75;;;12.10;99.90;;;;;;4897065;29;20584;-84
2022/09/10 02:13:35;;;;;;;4.05;3.05;;;12.10;99.90;;;;;;4892967;29;20213;-85
2022/09/10 02:16:05;;;;;;;3.40;2.15;;;12.00;99.90;;;;;;4882014;29;20699;-85
2022/09/10 02:18:34;;;;;;;3.08;2.70;;;12.00;99.90;;;;;;4879566;29;20355;-86
2022/09/10 02:21:02;;;;;;;3.35;1.92;;;12.00;99.90;;;;;;4879942;29;20264;-86
2022/09/10 02:23:34;;;;;;;3.20;1.83;;;12.20;99.90;;;;;;4878290;29;20284;-86
2022/09/10 02:26:00;;;;;;;2.65;1.98;;;12.00;99.90;;;;;;4880393;29;20198;-85
2022/09/10 02:28:29;;;;;;;3.15;2.13;;;11.60;99.90;;;;;;4878334;29;20532;-87
2022/09/10 02:30:54;;;;;;;2.28;2.05;;;12.00;99.90;;;;;;4878246;29;20636;-86
2022/09/10 02:33:20;;;;;;;2.70;1.60;;;12.00;99.90;;;;;;4878955;29;20222;-87
2022/09/10 02:35:47;;;;;;;3.72;2.63;;;12.10;99.90;;;;;;4864255;29;20189;-86
2022/09/10 02:38:12;;;;;;;2.00;1.77;;;12.10;99.90;;;;;;4883184;29;20204;-86
2022/09/10 02:40:38;;;;;;;3.33;2.17;;;12.10;99.90;;;;;;4881472;29;20716;-87
2022/09/10 02:43:04;;;;;;;2.20;2.00;;;12.10;99.90;;;;;;4881611;29;20190;-88
2022/09/10 02:45:30;;;;;;;3.80;1.65;;;12.10;99.90;;;;;;4882476;29;20178;-86
2022/09/10 02:47:56;;;;;;;2.90;1.38;;;12.10;99.90;;;;;;4882494;29;20683;-86
2022/09/10 02:50:23;;;;;;;2.38;2.03;;;12.10;99.90;;;;;;4882219;29;20185;-85
2022/09/10 02:52:50;;;;;;;1.63;1.52;;;12.10;99.90;;;;;;4866020;29;20222;-85
2022/09/10 02:55:16;;;;;;;1.60;1.48;;;12.10;99.90;;;;;;4881064;29;20210;-84
2022/09/10 02:57:42;;;;;;;2.08;1.80;;;12.10;99.90;;;;;;4880865;29;20324;-85
2022/09/10 03:00:09;;;;;;;2.40;2.15;;;12.10;99.90;;;;;;4882348;29;20340;-85
2022/09/10 03:02:35;;;;;;;1.63;1.48;;;12.10;99.90;;;;;;4881943;29;20300;-86
2022/09/10 03:05:03;;;;;;;1.85;1.67;;;12.20;99.90;;;;;;4881257;29;20189;-85
2022/09/10 03:07:30;;;;;;;2.35;2.08;;;12.10;99.90;;;;;;4881278;29;20731;-86
2022/09/10 03:09:55;;;;;;;2.13;1.90;;;12.10;99.90;;;;;;4881098;29;20189;-88
2022/09/10 03:12:21;;;;;;;2.30;2.10;;;12.10;99.90;;;;;;4882262;29;20575;-87
2022/09/10 03:14:47;;;;;;;1.95;1.75;;;12.10;99.90;;;;;;4881978;29;20185;-87
2022/09/10 03:17:13;;;;;;;2.97;1.58;;;12.10;99.90;;;;;;4881734;29;20269;-86
2022/09/10 03:19:39;;;;;;;2.15;2.05;;;12.00;99.90;;;;;;4881721;29;20277;-86
2022/09/10 03:22:05;;;;;;;2.63;2.33;;;12.20;99.90;;;;;;4887565;29;20272;-87
2022/09/10 03:24:30;;;;;;;1.35;1.25;;;12.40;99.90;;;;;;4884901;29;20178;-87
2022/09/10 03:26:56;;;;;;;1.50;1.40;;;12.10;99.90;;;;;;4885266;29;20186;-87
2022/09/10 03:29:23;;;;;;;2.75;2.05;;;12.10;99.90;;;;;;4870201;29;20617;-86
2022/09/10 03:31:50;;;;;;;2.08;1.85;;;12.70;99.90;;;;;;4885250;29;20186;-87
2022/09/10 03:34:17;;;;;;;4.60;2.17;;;13.10;99.90;;;;;;4888340;29;20178;-88
2022/09/10 03:36:43;;;;;;;2.15;1.48;;;12.10;99.90;;;;;;4884390;29;20185;-87
2022/09/10 03:39:08;;;;;;;2.80;1.88;;;12.10;99.90;;;;;;4882833;29;20226;-87
2022/09/10 03:41:34;;;;;;;1.83;1.55;;;12.10;99.90;;;;;;4881701;29;20190;-86
2022/09/10 03:44:00;;;;;;;1.90;1.80;;;12.10;99.90;;;;;;4883244;29;20271;-87
2022/09/10 03:46:26;;;;;;;3.58;2.20;;;12.20;99.90;;;;;;4882030;29;20558;-86
2022/09/10 03:48:52;;;;;;;6.57;2.63;;;12.20;99.90;;;;;;4880926;29;20197;-88
2022/09/10 03:51:18;;;;;;;2.05;1.40;;;12.00;99.90;;;;;;4880148;29;20192;-86
2022/09/10 03:53:43;;;;;;;2.60;1.58;;;12.50;99.90;;;;;;4879554;29;20213;-86
2022/09/10 03:56:10;;;;;;;2.05;1.85;;;12.10;99.90;;;;;;4879631;29;20266;-87
2022/09/10 03:58:36;;;;;;;2.38;2.15;;;12.00;99.90;;;;;;4879658;29;20281;-86
2022/09/10 04:01:02;;;;;;;3.97;1.73;;;12.10;99.90;;;;;;4876843;29;20186;-86
2022/09/10 04:03:28;;;;;;;2.70;1.98;;;12.20;99.90;;;;;;4861657;29;20217;-86
2022/09/10 04:05:54;;;;;;;2.20;1.88;;;;;;;;;;4877770;29;20189;-87
2022/09/10 04:08:19;;;;;;;2.72;2.33;;;12.10;99.90;;;;;;4877695;29;20639;-87
2022/09/10 04:10:47;;;;;;;1.40;1.25;;;;;;;;;;4876293;29;20201;-87
2022/09/10 04:13:12;;;;;;;2.10;1.88;;;12.10;99.90;;;;;;4877216;29;20317;-86
2022/09/10 04:15:38;;;;;;;1.50;1.40;;;12.10;99.90;;;;;;4877252;29;20260;-87
2022/09/10 04:18:05;;;;;;;4.22;2.10;;;12.30;99.90;;;;;;4876044;29;20214;-87
2022/09/10 04:20:31;;;;;;;2.92;2.22;;;13.30;99.90;;;;;;4877465;29;20196;-86
2022/09/10 04:22:57;;;;;;;1.35;1.17;;;12.20;99.90;;;;;;4878786;29;20194;-87
2022/09/10 04:25:22;;;;;;;1.92;1.40;;;12.10;99.90;;;;;;4877966;29;20197;-88
2022/09/10 04:27:48;;;;;;;2.60;1.95;;;12.60;99.90;;;;;;4877109;29;20214;-88
2022/09/10 04:30:15;;;;;;;2.47;1.30;;;12.10;99.90;;;;;;4877730;29;20186;-87
2022/09/10 04:32:41;;;;;;;2.13;1.92;;;12.20;99.90;;;;;;4878445;29;20260;-87
2022/09/10 04:35:07;;;;;;;4.32;2.50;;;12.20;99.90;;;;;;4879112;29;20226;-86
2022/09/10 04:37:33;;;;;;;2.28;1.60;;;12.10;99.90;;;;;;4862569;29;20264;-88
2022/09/10 04:39:59;;;;;;;1.98;1.88;;;12.20;99.90;;;;;;4862433;29;20534;-85
2022/09/10 04:42:25;;;;;;;4.05;2.42;;;12.20;99.90;;;;;;4877520;29;20198;-86
2022/09/10 04:44:51;;;;;;;2.35;2.00;;;12.20;99.90;;;;;;4862391;29;20267;-86
2022/09/10 04:47:17;;;;;;;2.63;1.85;;;12.20;99.90;;;;;;4879356;29;20193;-86
2022/09/10 04:49:43;;;;;;;1.65;1.55;;;12.20;99.90;;;;;;4879189;29;20178;-87
2022/09/10 04:52:12;;;;;;;2.20;1.95;;;12.10;99.90;;;;;;4877553;29;20589;-87
2022/09/10 04:54:38;;;;;;;2.72;1.55;;;11.90;99.90;;;;;;4878881;29;20178;-87
2022/09/10 04:59:44;;;;;;;1.33;1.20;;;12.10;99.90;;;;;;5079754;28;20575;-86
2022/09/10 05:02:10;;;;;;;2.95;2.15;;;12.20;99.90;;;;;;5058365;28;20612;-87
2022/09/10 05:04:36;;;;;;;3.25;1.88;;;12.20;99.90;;;;;;5040444;28;20188;-86
2022/09/10 05:07:02;;;;;;;2.55;2.35;;;12.20;99.90;;;;;;5059930;28;20182;-87
2022/09/10 05:09:30;;;;;;;2.60;2.35;;;12.20;99.90;;;;;;5052184;28;20536;-86
2022/09/10 05:11:56;;;;;;;2.28;2.05;;;12.30;99.90;;;;;;5045216;28;20172;-87
2022/09/10 05:14:24;;;;;;;2.25;2.05;;;12.30;99.90;;;;;;5051341;28;20180;-88
2022/09/10 05:16:49;;;;;;;3.45;1.35;;;12.30;99.90;;;;;;5047486;28;20187;-87
2022/09/10 05:19:16;;;;;;;1.15;1.13;;;12.30;99.90;;;;;;5052920;28;20204;-87
2022/09/10 05:21:47;;;;;;;2.90;2.47;;;12.30;99.90;;;;;;5052270;28;20637;-88
2022/09/10 05:24:13;;;;;;;2.13;1.35;;;12.20;99.90;;;;;;5050098;28;20175;-90
2022/09/10 05:26:40;;;;;;;4.00;2.50;;;12.20;99.90;;;;;;5046988;28;20180;-87
2022/09/10 05:29:06;;;;;;;2.67;2.22;;;12.20;99.90;;;;;;5050880;28;20175;-86
2022/09/10 05:31:33;;;;;;;1.80;1.70;;;12.30;99.90;;;;;;5048320;28;20195;-85
2022/09/10 05:34:00;;;;;;;2.20;1.63;;;12.30;99.90;;;;;;5049134;28;20176;-90
2022/09/10 05:36:26;;;;;;;5.03;2.25;;;12.30;99.90;;;;;;5049706;28;20230;-87
2022/09/10 05:38:53;;;;;;;1.88;1.77;;;12.20;99.90;;;;;;5047294;28;20315;-86
2022/09/10 05:41:20;;;;;;;2.83;2.15;;;12.30;99.90;;;;;;5029017;28;20251;-88
2022/09/10 05:43:46;;;;;;;3.28;2.35;;;12.30;99.90;;;;;;5044710;28;20199;-89
2022/09/10 05:46:12;;;;;;;1.85;1.60;;;12.30;99.90;;;;;;5038840;28;20200;-87
2022/09/10 05:48:39;;;;;;;4.00;2.42;;;12.30;99.90;;;;;;5035874;28;20196;-87
2022/09/10 05:51:04;;;;;;;3.78;2.63;;;12.40;99.90;;;;;;5012072;28;20193;-88
2022/09/10 05:53:30;;;;;;;4.38;1.98;;;12.40;99.90;;;;;;5027921;28;20297;-87
2022/09/10 05:55:56;;;;;;;2.25;1.58;;;12.40;99.90;;;;;;5011530;28;20193;-88
2022/09/10 05:58:22;;;;;;;1.83;1.70;;;12.40;99.90;;;;;;5027252;28;20684;-91
2022/09/10 06:00:51;;;;;;;4.25;1.83;;;12.30;99.90;;;;;;5037321;28;20838;-88
2022/09/10 06:03:18;;;;;;;2.42;1.95;;;12.40;99.90;;;;;;5047255;28;20203;-87
2022/09/10 06:05:50;;;;;;;1.90;1.73;;;12.40;99.90;;;;;;5034449;28;20246;-86
2022/09/10 06:08:17;;;;;;;3.47;2.15;;;12.30;99.90;;;;;;5047334;28;20214;-87
2022/09/10 06:11:05;;;;;;;2.17;1.98;;;12.40;99.90;;;;;;5010379;28;20275;-83
2022/09/10 06:13:32;;;;;;;1.70;1.60;;;12.30;99.90;;;;;;5020221;28;20181;-84
2022/09/10 06:15:58;;;;;;;1.52;1.42;;;12.30;99.90;;;;;;5027464;28;20653;-86
2022/09/10 06:18:24;;;;;;;2.78;1.50;;;12.30;99.90;;;;;;5026706;28;20249;-87
2022/09/10 06:21:02;;;;;;;3.78;2.53;;;12.40;99.90;;;;;;5013301;28;20192;-87
2022/09/10 06:23:30;;;;;;;1.92;1.75;;;12.40;99.90;;;;;;5030021;28;20184;-86
2022/09/10 06:26:11;;;;;;;1.98;1.73;;;12.40;99.90;;;;;;5029144;28;20263;-86
2022/09/10 06:28:37;;;;;;;5.28;2.15;;;12.40;99.90;;;;;;5032096;28;20246;-86
2022/09/10 06:31:04;;;;;;;5.57;2.08;;;12.60;99.90;;;;;;5024326;28;20239;-84
2022/09/10 06:33:31;;;;;;;2.88;1.98;;;12.50;99.90;;;;;;5019515;28;20207;-84
2022/09/10 06:35:58;;;;;;;2.30;2.08;;;12.50;99.90;;;;;;5018718;28;20200;-83
2022/09/10 06:38:28;;;;;;;2.10;2.00;;;12.50;99.90;;;;;;5027279;28;20278;-86
2022/09/10 06:40:56;;;;;;;1.50;1.40;;;12.50;99.90;;;;;;5032560;28;20208;-84
2022/09/10 06:43:24;;;;;;;1.55;1.38;;;12.50;99.90;;;;;;5027918;28;20544;-84
2022/09/10 06:45:51;;;;;;;2.30;2.10;;;12.50;99.90;;;;;;5014856;28;20204;-84
2022/09/10 06:48:18;;;;;;;2.20;1.63;;;11.80;99.90;;;;;;5013349;28;20200;-84
2022/09/10 06:50:56;;;;;;;2.15;1.98;;;12.60;99.90;;;;;;5016430;28;20642;-84
2022/09/10 06:53:22;;;;;;;3.65;2.15;;;12.60;99.90;;;;;;5023806;28;20177;-84
2022/09/10 06:55:49;;;;;;;3.33;2.20;;;12.60;99.90;;;;;;5028973;28;20242;-84
2022/09/10 06:58:16;;;;;;;4.30;2.72;;;12.60;99.90;;;;;;5022553;28;20246;-84
2022/09/10 07:00:44;;;;;;;2.30;2.10;;;12.60;99.90;;;;;;5027675;28;20717;-83
2022/09/10 07:03:09;;;;;;;4.50;2.65;;;12.70;99.90;;;;;;5032345;28;20192;-84
2022/09/10 07:05:35;;;;;;;3.42;2.40;;;13.00;99.90;;;;;;5016677;28;20666;-83
2022/09/10 07:08:01;;;;;;;3.03;2.03;;;12.50;99.90;;;;;;5026518;28;20193;-83
2022/09/10 07:10:29;;;;;;;4.15;2.38;;;11.80;99.90;;;;;;5011577;28;20200;-84
2022/09/10 07:12:54;;;;;;;2.85;2.17;;;12.50;99.90;;;;;;5020725;28;20723;-84
2022/09/10 07:15:20;;;;;;;2.80;2.03;;;12.50;99.90;;;;;;5038931;28;20193;-83
2022/09/10 07:17:46;;;;;;;3.22;2.35;;;12.50;99.90;;;;;;5026999;28;20863;-83
2022/09/10 07:20:11;;;;;;;2.75;2.55;;;12.50;99.90;;;;;;5018735;28;20275;-84
2022/09/10 07:22:38;;;;;;;2.65;2.45;;;12.50;99.90;;;;;;5026629;28;20659;-85
2022/09/10 07:25:05;;;;;;;3.55;2.63;;;12.60;99.90;;;;;;5012694;28;20185;-85
2022/09/10 07:27:32;;;;;;;2.05;1.73;;;12.60;99.90;;;;;;5017833;28;20196;-84
2022/09/10 07:29:58;;;;;;;3.20;2.40;;;12.60;99.90;;;;;;5000071;28;20270;-85
2022/09/10 07:32:23;;;;;;;3.03;2.22;;;12.60;99.90;;;;;;5019659;28;20665;-84
2022/09/10 07:34:49;;;;;;;1.55;1.25;;;12.60;99.90;;;;;;5022039;28;20736;-84
2022/09/10 07:37:14;;;;;;;3.42;2.78;;;12.60;99.90;;;;;;5031809;28;20188;-84
2022/09/10 07:39:41;;;;;;;4.32;2.40;;;;;;;;;;5028978;28;20211;-83
2022/09/10 07:42:06;;;;;;;1.60;1.50;;;12.70;99.90;;;;;;5030853;28;20706;-84
2022/09/10 07:44:32;;;;;;;2.33;1.92;;;12.60;99.90;;;;;;5030919;28;20181;-84
2022/09/10 07:46:58;;;;;;;3.78;2.75;;;12.60;99.90;;;;;;5026237;28;20584;-85
2022/09/10 07:49:25;;;;;;;4.53;2.35;;;12.60;99.90;;;;;;5026440;28;20193;-84
2022/09/10 07:51:53;;;;;;;2.38;2.15;;;12.60;99.90;;;;;;5025692;28;20183;-84
2022/09/10 07:54:19;;;;;;;3.08;2.60;;;12.70;99.90;;;;;;5020570;28;20176;-85
2022/09/10 07:56:45;;;;;;;4.15;2.38;;;12.70;99.90;;;;;;5021198;28;20181;-84
2022/09/10 07:59:12;;;;;;;2.78;1.90;;;12.70;99.90;;;;;;5023965;28;20346;-84
2022/09/10 08:01:37;;;;;;;2.97;2.05;;;12.70;99.90;;;;;;5017613;28;20189;-85
2022/09/10 08:04:04;;;;;;;3.67;2.22;;;12.70;99.90;;;;;;5012785;28;20181;-84
2022/09/10 08:06:32;;;;;;;4.05;2.42;;;12.70;99.90;;;;;;5016422;28;20180;-84
2022/09/10 08:08:59;;;;;;;3.60;3.05;;;12.70;99.90;;;;;;5002371;28;20271;-85
2022/09/10 08:11:25;;;;;;;5.30;2.35;;;12.70;99.90;;;;;;5017783;28;20276;-85
2022/09/10 08:13:52;;;;;;;3.63;2.35;;;12.70;99.90;;;;;;5015385;28;20189;-84
2022/09/10 08:16:21;;;;;;;3.53;2.40;;;12.80;99.90;;;;;;5011247;28;20181;-85
2022/09/10 08:18:48;;;;;;;3.95;2.47;;;12.80;99.90;;;;;;5016849;28;20205;-85
2022/09/10 08:21:15;;;;;;;3.58;2.22;;;12.70;99.90;;;;;;5011693;28;20172;-84
2022/09/10 08:23:42;;;;;;;2.15;1.92;;;12.70;99.90;;;;;;5018517;28;20234;-84
2022/09/10 08:26:09;;;;;;;5.32;1.80;;;12.80;99.90;;;;;;5014029;28;20208;-85
2022/09/10 08:28:36;;;;;;;2.10;1.90;;;12.80;99.90;;;;;;5016581;28;20635;-85
2022/09/10 08:31:10;;;;;;;2.78;2.10;;;12.80;99.90;;;;;;5015211;28;20185;-86
2022/09/10 08:33:38;;;;;;;3.05;2.67;;;12.90;99.90;;;;;;5016497;28;20287;-88
2022/09/10 08:36:05;;;;;;;4.38;2.92;;;12.90;99.90;;;;;;5021458;28;20623;-88
2022/09/10 08:38:36;;;;;;;2.13;1.88;;;12.90;99.90;;;;;;5023019;28;20287;-86
2022/09/10 08:41:37;;;;;;;2.83;1.50;;;13.00;99.90;;;;;;5034748;28;20598;-86
2022/09/10 08:44:09;;;;;;;2.35;2.08;;;13.30;99.90;;;;;;5020542;28;20242;-85
2022/09/10 08:46:55;;;;;;;3.45;2.53;;;12.90;99.90;;;;;;5012318;28;20181;-86
2022/09/10 08:49:43;;;;;;;3.75;2.28;;;12.90;99.90;;;;;;5013433;28;20184;-86
2022/09/10 08:52:21;;;;;;;2.58;1.88;;;12.90;99.90;;;;;;5010404;28;20181;-84
2022/09/10 08:55:08;;;;;;;2.65;1.92;;;13.00;99.90;;;;;;5016991;28;20230;-83
2022/09/10 08:57:46;;;;;;;2.97;1.63;;;13.00;99.90;;;;;;5018998;28;20327;-84
2022/09/10 09:00:18;;;;;;;4.32;1.95;;;13.00;99.90;;;;;;5018071;28;20184;-84
2022/09/10 09:03:01;;;;;;;5.65;2.58;;;13.00;99.90;;;;;;5012821;28;20665;-84
2022/09/10 09:05:48;;;;;;;4.25;2.78;;;13.00;99.90;;;;;;5020240;28;20181;-83
2022/09/10 09:08:18;;;;;;;2.65;1.65;;;13.00;99.90;;;;;;5025229;28;20657;-83
2022/09/10 09:10:55;;;;;;;3.42;2.20;;;13.00;99.90;;;;;;5027884;28;20269;-84
2022/09/10 09:13:56;;;;;;;3.53;2.42;;;13.00;99.90;;;;;;5021919;28;20653;-84
2022/09/10 09:16:47;;;;;;;3.50;2.30;;;13.00;99.90;;;;;;5030111;28;20186;-84
2022/09/10 09:19:32;;;;;;;4.75;2.78;;;13.10;99.90;;;;;;5015807;28;20299;-85
2022/09/10 09:22:17;;;;;;;4.30;2.13;;;13.10;99.90;;;;;;5010004;28;20284;-84
2022/09/10 09:25:08;;;;;;;3.95;2.50;;;13.20;99.90;;;;;;5012524;28;20184;-85
2022/09/10 09:27:36;;;;;;;4.72;3.10;;;13.20;99.90;;;;;;5018359;28;20186;-83
2022/09/10 09:30:04;;;;;;;4.30;3.22;;;13.20;99.90;;;;;;5021042;28;20189;-84
2022/09/10 09:32:33;;;;;;;3.85;2.78;;;13.20;99.90;;;;;;5039022;28;20712;-85
2022/09/10 09:35:21;;;;;;;1.88;1.77;;;13.10;99.90;;;;;;5024271;28;20180;-86
2022/09/10 09:37:47;;;;;;;4.95;3.35;;;13.20;99.90;;;;;;5021622;28;20298;-84
2022/09/10 09:40:24;;;;;;;5.70;3.65;;;13.20;99.90;;;;;;5020064;28;20291;-85
2022/09/10 09:42:53;;;;;;;3.13;2.83;;;13.20;99.90;;;;;;5016273;28;20656;-84
2022/09/10 09:45:33;;;;;;;2.20;1.98;;;13.20;99.90;;;;;;5030284;28;20216;-85
2022/09/10 09:47:59;;;;;;;3.08;2.63;;;13.20;99.90;;;;;;5033979;28;20181;-85
2022/09/10 09:50:28;;;;;;;5.18;3.17;;;13.20;99.90;;;;;;5033879;28;20176;-88
2022/09/10 09:52:57;;;;;;;2.22;2.03;;;13.20;99.90;;;;;;5034205;28;20259;-84
2022/09/10 09:55:38;;;;;;;2.28;2.00;;;13.20;99.90;;;;;;5034465;28;20180;-85
2022/09/10 09:58:32;;;;;;;2.80;1.98;;;13.20;99.90;;;;;;5034165;28;20232;-86
2022/09/10 10:01:03;;;;;;;3.65;2.58;;;13.20;99.90;;;;;;5026170;28;20176;-85
2022/09/10 10:03:51;;;;;;;3.40;1.98;;;13.10;99.90;;;;;;5016704;28;20185;-85
2022/09/10 10:06:37;;;;;;;3.85;2.80;;;13.20;99.90;;;;;;5021336;28;20197;-84
2022/09/10 10:09:19;;;;;;;3.50;3.13;;;13.10;99.90;;;;;;5015283;28;20220;-84
2022/09/10 10:11:47;;;;;;;3.70;3.05;;;13.10;99.90;;;;;;5023049;28;20234;-85
2022/09/10 10:14:31;;;;;;;3.40;2.42;;;13.10;99.90;;;;;;5035343;28;20180;-83
2022/09/10 10:16:59;;;;;;;2.60;2.30;;;13.10;99.90;;;;;;5034843;28;20534;-84
2022/09/10 10:19:31;;;;;;;8.32;3.60;;;13.10;99.90;;;;;;5032766;28;20629;-85
2022/09/10 10:22:20;;;;;;;2.28;2.00;;;13.00;99.90;;;;;;5022919;28;20777;-85
2022/09/10 10:24:48;;;;;;;3.30;2.20;;;13.00;99.90;;;;;;5033412;28;20188;-84
2022/09/10 10:27:22;;;;;;;3.38;2.17;;;13.10;99.90;;;;;;5033803;28;20199;-84
2022/09/10 10:30:10;;;;;;;2.75;2.10;;;13.00;99.90;;;;;;5032922;28;20187;-83
2022/09/10 10:33:07;;;;;;;3.33;3.00;;;13.00;99.90;;;;;;5029062;28;20232;-84
2022/09/10 10:36:09;;;;;;;3.38;2.42;;;13.00;99.90;;;;;;5032269;28;20272;-85
2022/09/10 10:38:54;;;;;;;4.75;2.00;;;13.10;99.90;;;;;;5034117;28;20336;-84
2022/09/10 10:42:03;;;;;;;5.75;2.03;;;13.10;99.90;;;;;;5028311;28;20243;-86
2022/09/10 10:44:47;;;;;;;4.40;2.25;;;13.10;99.90;;;;;;5026190;28;20185;-85
2022/09/10 10:47:45;;;;;;;2.22;1.70;;;13.10;99.90;;;;;;5043754;28;20184;-85
2022/09/10 10:50:41;;;;;;;1.35;1.25;;;13.20;99.90;;;;;;5030039;28;20200;-86
2022/09/10 10:53:34;;;;;;;3.13;2.55;;;13.20;99.90;;;;;;5031556;28;20188;-85
2022/09/10 10:56:23;;;;;;;3.20;2.28;;;13.20;99.90;;;;;;5033340;28;20184;-84
2022/09/10 10:58:58;;;;;;;4.40;2.35;;;13.20;99.90;;;;;;5032379;28;20326;-85
2022/09/10 11:01:28;;;;;;;3.40;2.42;;;13.50;99.90;;;;;;5030591;28;20242;-85
2022/09/10 11:04:15;;;;;;;2.78;2.13;;;13.20;99.90;;;;;;5032463;28;20181;-85
2022/09/10 11:06:46;;;;;;;2.50;2.22;;;13.20;99.90;;;;;;5047523;28;20181;-86
2022/09/10 11:09:39;;;;;;;3.85;2.22;;;13.20;99.90;;;;;;5036643;28;20191;-85
2022/09/10 11:12:12;;;;;;;3.97;2.40;;;13.30;99.90;;;;;;5048515;28;20177;-85
2022/09/10 11:14:51;;;;;;;4.10;3.17;;;13.20;99.90;;;;;;5019300;28;20531;-85
2022/09/10 11:17:28;;;;;;;3.92;2.88;;;13.20;99.90;;;;;;5023244;28;20188;-85
2022/09/10 11:20:09;;;;;;;4.53;2.97;;;13.20;99.90;;;;;;5020060;28;20211;-85
2022/09/10 11:22:40;;;;;;;3.17;2.78;;;13.10;99.90;;;;;;5030649;28;20230;-85
2022/09/10 11:25:30;;;;;;;4.90;2.97;;;13.20;99.90;;;;;;5028984;28;20191;-85
2022/09/10 11:28:15;;;;;;;6.30;4.00;;;13.10;99.90;;;;;;5040030;28;20185;-84
2022/09/10 11:30:49;;;;;;;3.50;2.60;;;13.10;99.90;;;;;;5041298;28;20176;-85
2022/09/10 11:33:35;;;;;;;4.90;2.83;;;13.10;99.90;;;;;;5039954;28;20200;-82
2022/09/10 11:36:11;;;;;;;3.55;3.08;;;13.10;99.90;;;;;;5045440;28;20164;-85
2022/09/10 11:38:58;;;;;;;5.20;3.03;;;13.10;99.90;;;;;;5038027;28;20211;-86
2022/09/10 11:41:29;;;;;;;1.70;1.58;;;13.20;99.90;;;;;;5043631;28;20192;-84
2022/09/10 11:44:34;;;;;;;5.72;3.05;;;13.20;99.90;;;;;;5046253;28;20164;-85
2022/09/10 11:47:03;;;;;;;6.05;4.30;;;13.10;99.90;;;;;;5046527;28;20172;-84
2022/09/10 11:50:02;;;;;;;3.15;2.72;;;13.10;99.90;;;;;;5044185;28;20195;-84
2022/09/10 11:52:30;;;;;;;5.18;3.45;;;13.10;99.90;;;;;;5042798;28;20176;-85
2022/09/10 11:54:57;;;;;;;4.93;3.00;;;13.10;99.90;;;;;;5043417;28;20173;-86
2022/09/10 11:57:38;;;;;;;4.15;3.50;;;12.90;99.90;;;;;;5040110;28;20184;-85
2022/09/10 12:00:17;;;;;;;5.47;3.38;;;13.00;99.90;;;;;;5041949;28;20724;-86
2022/09/10 12:03:05;;;;;;;4.95;3.67;;;13.00;99.90;;;;;;5042400;28;20652;-86
2022/09/10 12:05:53;;;;;;;4.35;3.42;;;13.00;99.90;;;;;;5052505;28;20266;-87
2022/09/10 12:08:52;;;;;;;4.50;3.70;;;13.00;99.90;;;;;;5042490;28;20625;-87
2022/09/10 12:11:35;;;;;;;8.02;4.45;;;13.00;99.90;;;;;;5034503;28;20641;-86
2022/09/10 12:14:13;;;;;;;7.03;3.95;;;13.00;99.90;;;;;;5058639;28;20199;-85
2022/09/10 12:16:50;;;;;;;4.97;3.45;;;13.00;99.90;;;;;;5064957;28;20157;-85
2022/09/10 12:19:28;;;;;;;7.85;4.88;;;13.00;99.90;;;;;;5062274;28;20224;-84
2022/09/10 12:22:04;;;;;;;3.47;2.70;;;13.50;99.90;;;;;;5064086;28;20161;-86
2022/09/10 12:24:34;;;;;;;5.25;3.78;;;12.90;99.90;;;;;;5065611;28;20194;-84
2022/09/10 12:27:01;;;;;;;6.55;3.95;;;12.90;99.90;;;;;;5061955;28;20188;-85
2022/09/10 12:29:35;;;;;;;4.78;3.58;;;13.00;99.90;;;;;;5061883;28;20214;-85
2022/09/10 12:32:12;;;;;;;8.70;3.72;;;13.00;99.90;;;;;;5064614;28;20163;-85
2022/09/10 12:34:39;;;;;;;7.18;2.95;;;13.00;99.90;;;;;;5064604;28;20199;-87
2022/09/10 12:37:05;;;;;;;6.13;3.22;;;12.90;99.90;;;;;;5051787;28;20265;-86
2022/09/10 12:39:32;;;;;;;4.43;2.55;;;12.90;99.90;;;;;;5043673;28;21008;-88
2022/09/10 12:42:22;;;;;;;3.13;2.65;;;12.90;99.90;;;;;;5044492;28;20178;-86
2022/09/10 12:44:48;;;;;;;5.30;3.05;;;12.90;99.90;;;;;;5050602;28;20192;-89
2022/09/10 12:47:26;;;;;;;3.83;2.35;;;12.90;99.90;;;;;;5031396;28;20172;-88
2022/09/10 12:50:04;;;;;;;4.47;2.33;;;12.90;99.90;;;;;;5042090;28;20222;-86
2022/09/10 12:52:37;;;;;;;2.60;2.13;;;12.90;99.90;;;;;;5037606;28;20554;-87
2022/09/10 12:55:22;;;;;;;2.50;2.30;;;12.80;99.90;;;;;;5042999;28;20203;-88
2022/09/10 12:57:57;;;;;;;2.42;2.10;;;12.90;99.90;;;;;;5037384;28;20223;-86
2022/09/10 13:00:24;;;;;;;2.60;2.08;;;12.90;99.90;;;;;;5047255;28;20636;-86
2022/09/10 13:03:03;;;;;;;3.10;2.35;;;12.90;99.90;;;;;;5045269;28;20263;-87
2022/09/10 13:05:47;;;;;;;3.35;2.78;;;12.90;99.90;;;;;;5038358;28;20210;-88
2022/09/10 13:08:17;;;;;;;2.63;2.05;;;12.80;99.90;;;;;;5028925;28;20168;-88
2022/09/10 13:10:48;;;;;;;2.55;1.48;;;12.80;99.90;;;;;;5032834;28;20169;-85
2022/09/10 13:13:40;;;;;;;6.25;3.03;;;12.90;99.90;;;;;;5044105;28;20186;-84
2022/09/10 13:16:39;;;;;;;3.83;2.65;;;12.90;99.90;;;;;;5034059;28;20165;-85